Savoonga Airport
PASA : rendu visible

Aérodrome :











RETROUVEZ-NOUS SUR...

 
LOGIN :

S'inscrire | Disclaimer

   EN    FR    IT 

 









Légende :    VFR   VFR Marginal   IFR   IFR Intensif   IFR Très Intensif
Visi : 
Plafond : 
>= 8 km
>= 3000ft
5 à 8 km
1000 à 3000 ft
1500m à 5 km
500 à 1000 ft
800 à 1500m
200 à 500 ft
< 800m
< 200 ft
Symboles :   Orages  Brouillard  Fortes neiges  Fortes précipitations  Vent > 20 kt






- Altitude de l'aérodrome : 53 ft
- Code IATA : SVA


PASA - Savoonga

DERNIER METAR :
  • 061156Z AUTO 00000KT 10SM OVC004 02/01 A3007 RMK AO2 SLP184 T00170006 10028 20017 51004 FZRANO

METARs EXPIRÉS :
  • 061136Z AUTO 00000KT 9SM BKN004 OVC016 02/01 A3007 RMK AO2 FZRANO
  • 061056Z AUTO 03003KT 10SM SCT004 OVC016 02/01 A3007 RMK AO2 SLP184 T00170011 FZRANO
  • 061039Z AUTO 02005KT 10SM SCT004 OVC016 02/01 A3007 RMK AO2 FZRANO
  • 061024Z AUTO 04004KT 10SM OVC016 02/01 A3007 RMK AO2 FZRANO
  • 060956Z AUTO 06005KT 10SM OVC014 02/01 A3006 RMK AO2 SLP180 T00220011 FZRANO

TAF N/A
FIR PAZA / Amérique du Nord



MET'MAP, la Météo Aéronautique d'un coup d'oeil ! - Copyright ORBIFLY Décembre 2007 - Disclaimer

ORBIFLY MET'MAP TEAM :

Programmation & Développement : Alexandra Zaïnal
Sur une idée originale de : Baudouin d'Aumeries
Assistance à la programmation : Marc-Olivier Méhu
Soutien technique & logistique : Manuel Goepfert

Contact : metmap@orbifly.com




SOURCES & CREDITS :

   NOAA       Earth
Advisory